createdAt,value
2022-11-29T00:00:38.933Z,98819.97
2022-11-29T00:03:05.663Z,98811.22
2022-11-29T00:05:35.047Z,98810.41
2022-11-29T00:08:01.528Z,98806.22
2022-11-29T00:10:28.051Z,98819.00
2022-11-29T00:12:54.619Z,98808.13
2022-11-29T00:15:21.141Z,98806.47
2022-11-29T00:17:47.653Z,98807.53
2022-11-29T00:20:14.220Z,98806.91
2022-11-29T00:22:40.743Z,98803.13
2022-11-29T00:25:07.437Z,98796.03
2022-11-29T00:27:33.956Z,98795.22
2022-11-29T00:30:00.497Z,98795.22
2022-11-29T00:32:27.156Z,98794.63
2022-11-29T00:34:53.622Z,98802.53
2022-11-29T00:37:20.152Z,98800.28
2022-11-29T00:39:46.624Z,98789.44
2022-11-29T00:42:13.141Z,98785.66
2022-11-29T00:44:39.640Z,98789.66
2022-11-29T00:47:06.120Z,98791.56
2022-11-29T00:49:32.566Z,98782.59
2022-11-29T00:51:59.757Z,98784.25
2022-11-29T00:54:26.260Z,98782.81
2022-11-29T00:56:52.802Z,98771.97
2022-11-29T00:59:19.312Z,98763.06
2022-11-29T01:01:45.901Z,98774.66
2022-11-29T01:04:12.596Z,98774.88
2022-11-29T01:06:39.356Z,98779.47
2022-11-29T01:09:05.844Z,98775.09
2022-11-29T01:11:32.396Z,98775.09
2022-11-29T01:14:01.411Z,98783.25
2022-11-29T01:16:30.074Z,98778.06
2022-11-29T01:18:56.814Z,98781.84
2022-11-29T01:21:24.143Z,98779.94
2022-11-29T01:23:52.164Z,98776.66
2022-11-29T01:26:27.503Z,98776.41
2022-11-29T01:28:55.158Z,98772.88
2022-11-29T01:31:27.285Z,98775.81
2022-11-29T01:34:01.863Z,98783.13
2022-11-29T01:36:28.582Z,98775.81
2022-11-29T01:38:55.129Z,98772.28
2022-11-29T01:41:26.409Z,98776.88
2022-11-29T01:44:14.074Z,98773.34
2022-11-29T01:46:43.061Z,98776.06
2022-11-29T01:49:48.228Z,98775.44
2022-11-29T01:52:18.109Z,98771.69
2022-11-29T01:54:47.632Z,98775.44
2022-11-29T01:57:14.393Z,98766.47
2022-11-29T01:59:44.323Z,98769.16
2022-11-29T02:02:32.272Z,98780.03
2022-11-29T02:05:00.083Z,98762.91
2022-11-29T02:07:26.647Z,98764.56
2022-11-29T02:09:53.277Z,98768.34
2022-11-29T02:12:44.961Z,98764.81
2022-11-29T02:15:28.820Z,98760.44
2022-11-29T02:18:07.196Z,98755.84
2022-11-29T02:21:01.464Z,98755.25
2022-11-29T02:23:40.989Z,98755.25
2022-11-29T02:26:13.609Z,98752.53
2022-11-29T02:28:58.863Z,98751.69
2022-11-29T02:31:54.976Z,98750.03
2022-11-29T02:34:30.507Z,98743.78
2022-11-29T02:37:22.479Z,98742.97
2022-11-29T02:40:12.272Z,98744.84
2022-11-29T02:43:16.289Z,98735.88
2022-11-29T02:45:56.514Z,98741.31
2022-11-29T02:48:46.212Z,98743.19
2022-11-29T02:51:18.871Z,98736.13
2022-11-29T02:53:52.518Z,98746.97
2022-11-29T02:56:53.164Z,98746.97
2022-11-29T02:59:40.989Z,98735.28
2022-11-29T03:02:20.352Z,98735.50
2022-11-29T03:05:17.877Z,98742.56
2022-11-29T03:07:46.764Z,98741.75
2022-11-29T03:10:32.224Z,98730.06
2022-11-29T03:12:59.713Z,98738.44
2022-11-29T03:15:46.287Z,98736.78
2022-11-29T03:18:37.315Z,98738.69
2022-11-29T03:21:13.600Z,98742.22
2022-11-29T03:23:59.505Z,98739.50
2022-11-29T03:26:45.076Z,98739.75
2022-11-29T03:29:27.957Z,98733.25
2022-11-29T03:32:02.085Z,98740.56
2022-11-29T03:34:58.453Z,98740.56
2022-11-29T03:37:56.165Z,98737.03
2022-11-29T03:40:29.835Z,98734.53
2022-11-29T03:43:08.545Z,98728.97
2022-11-29T03:45:42.753Z,98732.06
2022-11-29T03:48:32.065Z,98729.34
2022-11-29T03:51:22.677Z,98741.03
2022-11-29T03:54:08.279Z,98734.78
2022-11-29T03:56:37.549Z,98736.66
2022-11-29T03:59:23.718Z,98734.78
2022-11-29T04:02:24.210Z,98733.13
2022-11-29T04:04:59.597Z,98732.31
2022-11-29T04:07:48.011Z,98735.00
2022-11-29T04:10:31.715Z,98723.53
2022-11-29T04:13:35.627Z,98736.91
2022-11-29T04:16:11.402Z,98730.63
2022-11-29T04:18:48.687Z,98730.84
2022-11-29T04:21:27.276Z,98727.31
2022-11-29T04:24:31.571Z,98728.13
2022-11-29T04:27:22.404Z,98728.13
2022-11-29T04:30:04.191Z,98729.19
2022-11-29T04:33:04.336Z,98734.63
2022-11-29T04:35:48.987Z,98724.81
2022-11-29T04:38:42.902Z,98730.03
2022-11-29T04:41:32.597Z,98738.41
2022-11-29T04:44:11.202Z,98738.41
2022-11-29T04:47:01.852Z,98737.56
2022-11-29T04:49:51.484Z,98738.41
2022-11-29T04:52:30.659Z,98727.78
2022-11-29T04:55:07.674Z,98734.03
2022-11-29T04:57:47.660Z,98732.38
2022-11-29T05:00:19.547Z,98736.97
2022-11-29T05:03:06.999Z,98732.38
2022-11-29T05:05:56.897Z,98737.22
2022-11-29T05:08:44.575Z,98736.16
2022-11-29T05:11:35.781Z,98739.69
2022-11-29T05:14:34.045Z,98737.22
2022-11-29T05:17:26.524Z,98735.56
2022-11-29T05:20:15.273Z,98729.31
2022-11-29T05:23:03.710Z,98731.78
2022-11-29T05:25:57.231Z,98734.72
2022-11-29T05:28:48.681Z,98737.44
2022-11-29T05:32:00.232Z,98739.09
2022-11-29T05:34:51.688Z,98739.91
2022-11-29T05:37:38.309Z,98738.88
2022-11-29T05:40:35.603Z,98743.22
2022-11-29T05:43:30.904Z,98739.47
2022-11-29T05:46:03.687Z,98739.00
2022-11-29T05:48:58.191Z,98750.66
2022-11-29T05:51:32.955Z,98742.75
2022-11-29T05:54:05.677Z,98740.22
2022-11-29T05:56:51.043Z,98745.41
2022-11-29T05:59:21.983Z,98745.16
2022-11-29T06:02:03.137Z,98744.69
2022-11-29T06:04:58.655Z,98746.34
2022-11-29T06:08:12.304Z,98745.09
2022-11-29T06:10:52.157Z,98749.22
2022-11-29T06:13:27.190Z,98748.97
2022-11-29T06:16:14.277Z,98748.75
2022-11-29T06:19:16.164Z,98745.81
2022-11-29T06:22:01.198Z,98750.78
2022-11-29T06:24:50.697Z,98745.94
2022-11-29T06:27:48.360Z,98747.59
2022-11-29T06:30:17.249Z,98756.34
2022-11-29T06:32:47.369Z,98761.53
2022-11-29T06:35:35.377Z,98767.56
2022-11-29T06:38:29.484Z,98768.19
2022-11-29T06:41:01.553Z,98763.34
2022-11-29T06:43:29.073Z,98773.13
2022-11-29T06:45:58.388Z,98764.75
2022-11-29T06:48:32.055Z,98768.06
2022-11-29T06:51:16.218Z,98771.59
2022-11-29T06:53:57.204Z,98763.03
2022-11-29T06:57:08.325Z,98773.66
2022-11-29T06:59:45.027Z,98767.16
2022-11-29T07:02:28.587Z,98773.22
2022-11-29T07:05:13.479Z,98771.09
2022-11-29T07:07:41.525Z,98774.41
2022-11-29T07:10:18.073Z,98779.63
2022-11-29T07:12:46.085Z,98770.63
2022-11-29T07:15:22.743Z,98786.47
2022-11-29T07:18:24.571Z,98775.38
2022-11-29T07:21:22.361Z,98780.56
2022-11-29T07:24:18.259Z,98783.88
2022-11-29T07:26:59.301Z,98784.50
2022-11-29T07:29:45.328Z,98795.94
2022-11-29T07:32:29.929Z,98790.28
2022-11-29T07:35:00.627Z,98791.09
2022-11-29T07:37:48.892Z,98793.34
2022-11-29T07:40:18.255Z,98786.03
2022-11-29T07:43:17.269Z,98788.53
2022-11-29T07:45:43.828Z,98787.66
2022-11-29T07:48:13.620Z,98788.06
2022-11-29T07:50:40.947Z,98796.44
2022-11-29T07:53:11.021Z,98793.25
2022-11-29T07:55:37.588Z,98791.38
2022-11-29T07:58:04.060Z,98794.91
2022-11-29T08:00:30.627Z,98796.56
2022-11-29T08:02:57.162Z,98796.56
2022-11-29T08:05:23.924Z,98795.50
2022-11-29T08:07:50.444Z,98790.88
2022-11-29T08:10:17.145Z,98798.81
2022-11-29T08:12:45.408Z,98795.25
2022-11-29T08:15:12.282Z,98794.44
2022-11-29T08:17:39.427Z,98795.25
2022-11-29T08:20:07.186Z,98805.09
2022-11-29T08:22:33.777Z,98803.19
2022-11-29T08:25:01.300Z,98804.22
2022-11-29T08:27:28.272Z,98807.81
2022-11-29T08:29:54.778Z,98814.06
2022-11-29T08:32:21.312Z,98811.13
2022-11-29T08:34:48.102Z,98805.91
2022-11-29T08:37:14.804Z,98820.34
2022-11-29T08:39:41.446Z,98812.19
2022-11-29T08:42:07.943Z,98816.56
2022-11-29T08:44:34.513Z,98820.09
2022-11-29T08:47:19.519Z,98823.63
2022-11-29T08:50:01.194Z,98816.31
2022-11-29T08:52:54.791Z,98816.31
2022-11-29T08:55:23.488Z,98819.84
2022-11-29T08:57:51.111Z,98826.13
2022-11-29T09:00:18.376Z,98821.50
2022-11-29T09:02:44.994Z,98823.41
2022-11-29T09:05:11.848Z,98828.00
2022-11-29T09:07:38.609Z,98829.91
2022-11-29T09:10:08.186Z,98827.19
2022-11-29T09:12:39.227Z,98833.56
2022-11-29T09:15:08.291Z,98831.31
2022-11-29T09:17:34.870Z,98835.91
2022-11-29T09:20:01.717Z,98833.44
2022-11-29T09:22:28.321Z,98839.72
2022-11-29T09:24:54.883Z,98853.53
2022-11-29T09:27:21.399Z,98854.34
2022-11-29T09:29:48.040Z,98858.38
2022-11-29T09:32:14.560Z,98852.94
2022-11-29T09:34:42.234Z,98850.22
2022-11-29T09:37:08.944Z,98857.53
2022-11-29T09:39:35.545Z,98858.56
2022-11-29T09:42:27.241Z,98868.41
2022-11-29T09:45:18.407Z,98861.91
2022-11-29T09:48:26.730Z,98861.22
2022-11-29T09:51:19.429Z,98867.13
2022-11-29T09:53:56.877Z,98861.91
2022-11-29T09:56:29.187Z,98863.19
2022-11-29T09:59:25.801Z,98870.31
2022-11-29T10:02:03.904Z,98864.88
2022-11-29T10:04:36.265Z,98871.13
2022-11-29T10:07:11.586Z,98865.91
2022-11-29T10:09:42.397Z,98864.25
2022-11-29T10:12:30.656Z,98858.81
2022-11-29T10:15:08.332Z,98854.44
2022-11-29T10:17:39.263Z,98861.75
2022-11-29T10:20:16.580Z,98850.06
2022-11-29T10:22:53.430Z,98851.13
2022-11-29T10:25:34.754Z,98843.81
2022-11-29T10:28:01.231Z,98854.09
2022-11-29T10:30:27.726Z,98850.31
2022-11-29T10:33:00.374Z,98848.66
2022-11-29T10:35:29.368Z,98847.00
2022-11-29T10:38:28.992Z,98842.16
2022-11-29T10:40:47.831Z,98847.59
2022-11-29T10:43:14.421Z,98841.31
2022-11-29T10:45:50.393Z,98844.03
2022-11-29T10:48:21.267Z,98843.22
2022-11-29T10:50:49.340Z,98837.78
2022-11-29T10:53:24.270Z,98837.78
2022-11-29T10:55:53.745Z,98835.06
2022-11-29T10:58:28.637Z,98847.00
2022-11-29T11:01:08.851Z,98831.75
2022-11-29T11:03:43.392Z,98828.22
2022-11-29T11:06:18.808Z,98831.13
2022-11-29T11:08:56.747Z,98832.00
2022-11-29T11:11:30.137Z,98828.41
2022-11-29T11:13:59.360Z,98828.41
2022-11-29T11:16:26.805Z,98827.59
2022-11-29T11:18:53.468Z,98822.41
2022-11-29T11:21:22.031Z,98825.94
2022-11-29T11:23:53.442Z,98822.41
2022-11-29T11:26:20.609Z,98822.41
2022-11-29T11:28:47.051Z,98822.41
2022-11-29T11:31:14.226Z,98818.63
2022-11-29T11:33:42.583Z,98816.97
2022-11-29T11:36:15.364Z,98810.13
2022-11-29T11:38:49.673Z,98819.09
2022-11-29T11:41:47.563Z,98821.81
2022-11-29T11:44:47.460Z,98819.09
2022-11-29T11:47:18.522Z,98820.97
2022-11-29T11:50:00.359Z,98821.81
2022-11-29T11:52:29.544Z,98824.53
2022-11-29T11:55:02.520Z,98822.88
2022-11-29T11:57:30.140Z,98826.41
2022-11-29T12:00:03.434Z,98831.03
2022-11-29T12:02:39.544Z,98824.53
2022-11-29T12:05:12.760Z,98829.13
2022-11-29T12:08:07.444Z,98825.59
2022-11-29T12:10:34.690Z,98825.00
2022-11-29T12:13:02.108Z,98823.09
2022-11-29T12:15:31.621Z,98826.88
2022-11-29T12:18:03.186Z,98835.03
2022-11-29T12:20:37.244Z,98836.94
2022-11-29T12:23:09.734Z,98833.38
2022-11-29T12:25:50.618Z,98843.19
2022-11-29T12:28:20.556Z,98839.03
2022-11-29T12:31:11.534Z,98834.44
2022-11-29T12:33:49.925Z,98845.31
2022-11-29T12:36:22.432Z,98839.03
2022-11-29T12:38:55.201Z,98838.19
2022-11-29T12:41:43.184Z,98837.59
2022-11-29T12:44:29.803Z,98843.84
2022-11-29T12:47:36.477Z,98842.19
2022-11-29T12:50:31.432Z,98826.47
2022-11-29T12:53:06.978Z,98841.38
2022-11-29T12:55:49.084Z,98837.84
2022-11-29T12:58:31.205Z,98844.31
2022-11-29T13:01:07.949Z,98844.31
2022-11-29T13:04:05.701Z,98845.38
2022-11-29T13:06:41.661Z,98838.31
2022-11-29T13:09:11.402Z,98837.25
2022-11-29T13:11:40.292Z,98844.56
2022-11-29T13:14:42.268Z,98841.03
2022-11-29T13:17:06.071Z,98849.16
2022-11-29T13:19:42.067Z,98850.22
2022-11-29T13:22:23.828Z,98850.22
2022-11-29T13:24:59.704Z,98845.88
2022-11-29T13:27:35.797Z,98844.78
2022-11-29T13:30:02.816Z,98847.50
2022-11-29T13:32:38.505Z,98843.97
2022-11-29T13:35:19.974Z,98852.13
2022-11-29T13:38:01.197Z,98852.13
2022-11-29T13:40:37.096Z,98852.31
2022-11-29T13:43:18.973Z,98856.94
2022-11-29T13:46:32.565Z,98849.84
2022-11-29T13:48:59.137Z,98854.44
2022-11-29T13:51:31.738Z,98852.56
2022-11-29T13:54:03.076Z,98861.75
2022-11-29T13:56:48.414Z,98856.34
2022-11-29T13:59:22.878Z,98857.41
2022-11-29T14:01:52.673Z,98858.22
2022-11-29T14:04:32.842Z,98856.56
2022-11-29T14:07:05.369Z,98857.41
2022-11-29T14:09:52.162Z,98853.84
2022-11-29T14:12:38.364Z,98854.91
2022-11-29T14:15:10.941Z,98858.47
2022-11-29T14:17:53.945Z,98849.47
2022-11-29T14:20:23.356Z,98855.13
2022-11-29T14:23:05.111Z,98859.72
2022-11-29T14:28:23.038Z,98859.94
2022-11-29T14:30:53.900Z,98875.19
2022-11-29T14:33:40.945Z,98869.16
2022-11-29T14:36:25.531Z,98870.00
2022-11-29T14:39:13.248Z,98865.59
2022-11-29T14:41:39.584Z,98863.72
2022-11-29T14:44:15.496Z,98867.47
2022-11-29T14:46:42.145Z,98873.72
2022-11-29T14:49:20.464Z,98869.38
2022-11-29T14:52:29.847Z,98874.59
2022-11-29T14:55:02.821Z,98877.50
2022-11-29T14:57:47.288Z,98883.16
2022-11-29T15:00:28.690Z,98881.28
2022-11-29T15:03:09.152Z,98883.41
2022-11-29T15:05:38.309Z,98887.19
2022-11-29T15:08:27.278Z,98883.41
2022-11-29T15:11:04.107Z,98878.22
2022-11-29T15:13:35.950Z,98885.53
2022-11-29T15:16:19.866Z,98880.31
2022-11-29T15:19:03.243Z,98886.59
2022-11-29T15:22:07.374Z,98888.47
2022-11-29T15:24:55.188Z,98893.91
2022-11-29T15:27:22.330Z,98886.81
2022-11-29T15:29:49.168Z,98886.00
2022-11-29T15:32:21.699Z,98885.38
2022-11-29T15:34:50.411Z,98887.88
2022-11-29T15:37:22.531Z,98885.16
2022-11-29T15:40:04.276Z,98892.69
2022-11-29T15:42:42.732Z,98893.50
2022-11-29T15:45:29.090Z,98893.75
2022-11-29T15:48:11.314Z,98896.44
2022-11-29T15:50:38.490Z,98897.50
2022-11-29T15:53:06.630Z,98901.88
2022-11-29T15:55:33.436Z,98904.00
2022-11-29T15:58:07.007Z,98904.84
2022-11-29T16:00:35.351Z,98904.84
2022-11-29T16:03:04.261Z,98897.75
2022-11-29T16:05:37.541Z,98903.63
2022-11-29T16:08:13.827Z,98906.94
2022-11-29T16:10:43.684Z,98903.41
2022-11-29T16:13:25.233Z,98903.41
2022-11-29T16:16:19.909Z,98905.28
2022-11-29T16:18:47.992Z,98905.28
2022-11-29T16:21:22.267Z,98912.59
2022-11-29T16:23:49.919Z,98906.34
2022-11-29T16:26:19.904Z,98902.81
2022-11-29T16:28:49.244Z,98907.41
2022-11-29T16:31:34.612Z,98901.16
2022-11-29T16:34:09.778Z,98910.13
2022-11-29T16:36:36.618Z,98908.44
2022-11-29T16:39:15.137Z,98908.44
2022-11-29T16:41:41.617Z,98911.16
2022-11-29T16:44:49.024Z,98909.50
2022-11-29T16:47:19.623Z,98921.19
2022-11-29T16:49:46.456Z,98922.25
2022-11-29T16:52:24.772Z,98924.97
2022-11-29T16:54:51.435Z,98920.59
2022-11-29T16:57:18.087Z,98926.00
2022-11-29T16:59:46.451Z,98914.31
2022-11-29T17:02:14.428Z,98921.66
2022-11-29T17:04:41.274Z,98921.66
2022-11-29T17:07:09.570Z,98925.19
2022-11-29T17:09:36.100Z,98929.78
2022-11-29T17:12:02.681Z,98930.84
2022-11-29T17:14:29.622Z,98939.00
2022-11-29T17:16:56.269Z,98930.03
2022-11-29T17:19:23.627Z,98935.44
2022-11-29T17:21:51.479Z,98929.19
2022-11-29T17:24:19.706Z,98936.50
2022-11-29T17:26:46.311Z,98931.06
2022-11-29T17:29:14.374Z,98937.34
2022-11-29T17:31:43.505Z,98939.44
2022-11-29T17:34:10.348Z,98942.16
2022-11-29T17:36:37.330Z,98944.06
2022-11-29T17:39:04.852Z,98939.44
2022-11-29T17:41:32.669Z,98939.06
2022-11-29T17:43:59.675Z,98940.50
2022-11-29T17:46:32.003Z,98945.94
2022-11-29T17:49:00.320Z,98947.81
2022-11-29T17:54:14.535Z,98945.09
2022-11-29T17:56:41.057Z,98947.00
2022-11-29T17:59:07.762Z,98947.19
2022-11-29T18:01:35.904Z,98945.31
2022-11-29T18:04:05.444Z,98948.84
2022-11-29T18:06:39.711Z,98952.63
2022-11-29T18:09:08.297Z,98955.34
2022-11-29T18:11:46.418Z,98950.97
2022-11-29T18:14:16.798Z,98945.53
2022-11-29T18:16:45.533Z,98952.03
2022-11-29T18:19:14.507Z,98955.56
2022-11-29T18:21:41.083Z,98954.72
2022-11-29T18:24:08.343Z,98952.25
2022-11-29T18:26:36.108Z,98951.19
2022-11-29T18:29:03.459Z,98956.63
2022-11-29T18:31:31.958Z,98951.41
2022-11-29T18:34:00.648Z,98948.72
2022-11-29T18:36:32.481Z,98954.97
2022-11-29T18:39:00.935Z,98956.84
2022-11-29T18:41:28.424Z,98954.13
2022-11-29T18:44:07.029Z,98951.88
2022-11-29T18:46:36.415Z,98951.41
2022-11-29T18:49:05.878Z,98955.78
2022-11-29T18:51:33.339Z,98947.41
2022-11-29T18:54:00.931Z,98955.34
2022-11-29T18:56:29.636Z,98954.09
2022-11-29T18:59:06.491Z,98950.91
2022-11-29T19:01:35.179Z,98960.47
2022-11-29T19:04:01.962Z,98957.09
2022-11-29T19:06:37.159Z,98948.97
2022-11-29T19:09:06.500Z,98959.34
2022-11-29T19:11:34.200Z,98950.75
2022-11-29T19:14:03.857Z,98953.88
2022-11-29T19:16:32.275Z,98951.75
2022-11-29T19:18:59.175Z,98959.44
2022-11-29T19:21:27.319Z,98961.09
2022-11-29T19:23:56.470Z,98958.16
2022-11-29T19:26:26.519Z,98956.88
2022-11-29T19:28:53.463Z,98962.09
2022-11-29T19:31:22.501Z,98962.69
2022-11-29T19:33:49.075Z,98962.47
2022-11-29T19:36:18.021Z,98957.66
2022-11-29T19:38:50.162Z,98958.47
2022-11-29T19:41:27.641Z,98955.53
2022-11-29T19:43:56.289Z,98954.50
2022-11-29T19:46:25.462Z,98953.44
2022-11-29T19:48:53.045Z,98952.38
2022-11-29T19:51:20.659Z,98954.25
2022-11-29T19:53:48.156Z,98955.69
2022-11-29T19:56:16.972Z,98960.66
2022-11-29T19:58:43.925Z,98963.53
2022-11-29T20:01:14.832Z,98960.59
2022-11-29T20:03:42.084Z,98960.81
2022-11-29T20:06:09.385Z,98958.16
2022-11-29T20:08:36.547Z,98962.38
2022-11-29T20:11:15.322Z,98962.09
2022-11-29T20:13:43.485Z,98959.53
2022-11-29T20:16:15.960Z,98963.69
2022-11-29T20:18:50.444Z,98958.03
2022-11-29T20:21:29.613Z,98953.88
2022-11-29T20:24:01.136Z,98964.13
2022-11-29T20:26:28.663Z,98968.50
2022-11-29T20:28:55.336Z,98967.44
2022-11-29T20:31:22.985Z,98967.44
2022-11-29T20:33:51.497Z,98965.72
2022-11-29T20:36:39.545Z,98967.91
2022-11-29T20:39:31.938Z,98971.34
2022-11-29T20:42:26.255Z,98974.72
2022-11-29T20:44:55.068Z,98977.56
2022-11-29T20:47:23.822Z,98978.66
2022-11-29T20:49:50.598Z,98980.53
2022-11-29T20:52:41.348Z,98984.44
2022-11-29T20:55:08.069Z,98979.19
2022-11-29T20:57:34.773Z,98976.72
2022-11-29T21:00:02.592Z,98977.22
2022-11-29T21:02:29.036Z,98982.13
2022-11-29T21:04:55.588Z,98980.38
2022-11-29T21:07:22.178Z,98973.00
2022-11-29T21:09:48.727Z,98974.00
2022-11-29T21:12:15.784Z,98976.06
2022-11-29T21:14:43.886Z,98968.28
2022-11-29T21:17:10.887Z,98972.00
2022-11-29T21:19:37.639Z,98974.84
2022-11-29T21:22:38.200Z,98968.16
2022-11-29T21:25:22.816Z,98963.06
2022-11-29T21:27:49.544Z,98964.50
2022-11-29T21:30:21.380Z,98964.88
2022-11-29T21:32:48.402Z,98967.50
2022-11-29T21:35:15.460Z,98967.72
2022-11-29T21:37:42.560Z,98959.81
2022-11-29T21:40:10.461Z,98959.59
2022-11-29T21:42:37.348Z,98962.31
2022-11-29T21:45:08.135Z,98961.69
2022-11-29T21:47:38.279Z,98960.66
2022-11-29T21:50:05.360Z,98956.28
2022-11-29T21:52:31.851Z,98953.56
2022-11-29T21:54:58.371Z,98959.00
2022-11-29T21:57:24.941Z,98958.16
2022-11-29T21:59:51.486Z,98954.38
2022-11-29T22:02:18.402Z,98955.44
2022-11-29T22:04:45.556Z,98959.00
2022-11-29T22:07:13.696Z,98953.78
2022-11-29T22:09:40.255Z,98951.06
2022-11-29T22:12:31.911Z,98950.25
2022-11-29T22:14:53.308Z,98952.97
2022-11-29T22:17:19.743Z,98959.47
2022-11-29T22:19:46.232Z,98948.59
2022-11-29T22:22:13.148Z,98949.66
2022-11-29T22:24:39.700Z,98949.66
2022-11-29T22:27:06.285Z,98949.66
2022-11-29T22:29:32.930Z,98951.53
2022-11-29T22:32:01.073Z,98957.78
2022-11-29T22:34:28.022Z,98952.38
2022-11-29T22:36:54.850Z,98952.56
2022-11-29T22:39:22.597Z,98951.75
2022-11-29T22:41:53.886Z,98949.03
2022-11-29T22:44:21.591Z,98955.50
2022-11-29T22:46:48.134Z,98952.81
2022-11-29T22:49:14.851Z,98951.97
2022-11-29T22:51:41.512Z,98962.00
2022-11-29T22:54:10.364Z,98952.22
2022-11-29T22:56:41.683Z,98947.84
2022-11-29T22:59:08.887Z,98947.84
2022-11-29T23:01:37.037Z,98957.03
2022-11-29T23:04:07.051Z,98952.66
2022-11-29T23:06:51.812Z,98954.56
2022-11-29T23:09:22.032Z,98957.28
2022-11-29T23:11:53.254Z,98953.09
2022-11-29T23:14:20.381Z,98950.19
2022-11-29T23:16:46.950Z,98954.78
2022-11-29T23:19:16.114Z,98953.97
2022-11-29T23:21:45.324Z,98948.53
2022-11-29T23:24:12.253Z,98946.84
2022-11-29T23:26:41.107Z,98953.09
2022-11-29T23:29:10.049Z,98951.44
2022-11-29T23:31:36.660Z,98946.03
2022-11-29T23:34:03.617Z,98944.34
2022-11-29T23:36:30.157Z,98949.78
2022-11-29T23:38:56.748Z,98950.84
2022-11-29T23:41:23.304Z,98956.28
2022-11-29T23:43:50.109Z,98943.75
2022-11-29T23:46:18.998Z,98944.00
2022-11-29T23:48:45.879Z,98942.13
2022-11-29T23:51:13.255Z,98943.16
2022-11-29T23:53:40.604Z,98935.03
2022-11-29T23:56:10.391Z,98936.09
2022-11-29T23:58:37.884Z,98937.97
